sensor_id;sensor_type;location;lat;lon;timestamp;temperature;humidity
57843;DHT22;43673;51.058;3.734;2023-04-25T07:21:43;16.10;99.90
57843;DHT22;43673;51.058;3.734;2023-04-25T07:24:08;18.10;96.60
57843;DHT22;43673;51.058;3.734;2023-04-25T07:26:34;19.10;93.10
57843;DHT22;43673;51.058;3.734;2023-04-25T07:29:00;19.00;90.10
57843;DHT22;43673;51.058;3.734;2023-04-25T07:31:26;18.60;90.00
57843;DHT22;43673;51.058;3.734;2023-04-25T07:33:52;18.50;88.30
57843;DHT22;43673;51.058;3.734;2023-04-25T07:36:19;18.10;86.60
57843;DHT22;43673;51.058;3.734;2023-04-25T07:38:45;18.00;86.80
57843;DHT22;43673;51.058;3.734;2023-04-25T07:41:10;17.90;87.10
57843;DHT22;43673;51.058;3.734;2023-04-25T07:43:36;18.20;87.30
57843;DHT22;43673;51.058;3.734;2023-04-25T07:46:02;18.60;84.80
57843;DHT22;43673;51.058;3.734;2023-04-25T07:48:28;18.40;83.00
57843;DHT22;43673;51.058;3.734;2023-04-25T07:50:53;18.40;81.60
57843;DHT22;43673;51.058;3.734;2023-04-25T07:53:19;18.40;81.20
57843;DHT22;43673;51.058;3.734;2023-04-25T07:55:45;19.10;80.10
57843;DHT22;43673;51.058;3.734;2023-04-25T07:58:11;20.00;77.40
57843;DHT22;43673;51.058;3.734;2023-04-25T08:00:37;20.50;76.20
57843;DHT22;43673;51.058;3.734;2023-04-25T08:03:03;21.00;73.40
57843;DHT22;43673;51.058;3.734;2023-04-25T08:05:29;21.60;73.20
57843;DHT22;43673;51.058;3.734;2023-04-25T08:07:55;21.30;70.50
57843;DHT22;43673;51.058;3.734;2023-04-25T08:10:22;20.50;70.10
57843;DHT22;43673;51.058;3.734;2023-04-25T08:12:48;19.70;71.00
57843;DHT22;43673;51.058;3.734;2023-04-25T08:15:14;18.90;74.00
57843;DHT22;43673;51.058;3.734;2023-04-25T08:17:40;18.20;74.00
57843;DHT22;43673;51.058;3.734;2023-04-25T08:20:09;17.70;75.20
57843;DHT22;43673;51.058;3.734;2023-04-25T08:22:42;16.80;77.90
57843;DHT22;43673;51.058;3.734;2023-04-25T08:25:08;16.20;81.30
57843;DHT22;43673;51.058;3.734;2023-04-25T08:27:34;16.20;82.00
57843;DHT22;43673;51.058;3.734;2023-04-25T08:30:00;17.00;81.10
57843;DHT22;43673;51.058;3.734;2023-04-25T08:32:26;18.70;76.60
57843;DHT22;43673;51.058;3.734;2023-04-25T08:34:52;19.90;71.30
57843;DHT22;43673;51.058;3.734;2023-04-25T08:37:19;20.50;68.40
57843;DHT22;43673;51.058;3.734;2023-04-25T08:39:46;21.50;65.90
57843;DHT22;43673;51.058;3.734;2023-04-25T08:42:14;22.00;62.30
57843;DHT22;43673;51.058;3.734;2023-04-25T08:44:40;22.70;59.80
57843;DHT22;43673;51.058;3.734;2023-04-25T08:47:06;22.40;58.20
57843;DHT22;43673;51.058;3.734;2023-04-25T08:49:33;20.80;58.60
57843;DHT22;43673;51.058;3.734;2023-04-25T08:52:03;20.40;60.40
57843;DHT22;43673;51.058;3.734;2023-04-25T08:54:32;19.90;62.80
57843;DHT22;43673;51.058;3.734;2023-04-25T08:57:01;20.50;61.30
57843;DHT22;43673;51.058;3.734;2023-04-25T08:59:30;21.00;61.50
57843;DHT22;43673;51.058;3.734;2023-04-25T09:01:57;21.10;60.60
57843;DHT22;43673;51.058;3.734;2023-04-25T09:04:23;20.80;60.40
57843;DHT22;43673;51.058;3.734;2023-04-25T09:06:49;20.40;58.70
57843;DHT22;43673;51.058;3.734;2023-04-25T09:09:15;19.40;59.90
57843;DHT22;43673;51.058;3.734;2023-04-25T09:12:09;18.10;63.20
57843;DHT22;43673;51.058;3.734;2023-04-25T10:01:42;16.20;84.70
57843;DHT22;43673;51.058;3.734;2023-04-25T10:04:28;16.40;83.40
57843;DHT22;43673;51.058;3.734;2023-04-25T10:07:06;16.50;81.50
57843;DHT22;43673;51.058;3.734;2023-04-25T10:12:32;16.50;80.30
57843;DHT22;43673;51.058;3.734;2023-04-25T10:14:59;16.50;79.50
57843;DHT22;43673;51.058;3.734;2023-04-25T10:17:52;16.50;80.10
57843;DHT22;43673;51.058;3.734;2023-04-25T10:20:19;16.90;79.60
57843;DHT22;43673;51.058;3.734;2023-04-25T10:22:46;17.40;79.30
57843;DHT22;43673;51.058;3.734;2023-04-25T10:25:15;17.80;79.50
57843;DHT22;43673;51.058;3.734;2023-04-25T10:27:41;17.20;79.20
57843;DHT22;43673;51.058;3.734;2023-04-25T10:30:09;16.60;81.30
57843;DHT22;43673;51.058;3.734;2023-04-25T10:32:39;15.90;83.90
57843;DHT22;43673;51.058;3.734;2023-04-25T10:35:36;15.70;86.10
57843;DHT22;43673;51.058;3.734;2023-04-25T11:11:57;15.30;85.10
57843;DHT22;43673;51.058;3.734;2023-04-25T11:17:19;15.80;81.50
57843;DHT22;43673;51.058;3.734;2023-04-25T11:20:02;15.60;80.10
57843;DHT22;43673;51.058;3.734;2023-04-25T11:36:44;15.60;75.80
57843;DHT22;43673;51.058;3.734;2023-04-25T11:39:43;16.00;77.10
57843;DHT22;43673;51.058;3.734;2023-04-25T11:45:14;16.00;77.90
57843;DHT22;43673;51.058;3.734;2023-04-25T11:58:21;16.10;78.00
